Time;durP1;ratioP1;P1;durP2;ratioP2;P2;SDS_P1;SDS_P2;PMS_P1;PMS_P2;Temp;Humidity;BMP_temperature;BMP_pressure;BME280_temperature;BME280_humidity;BME280_pressure;Samples;Min_cycle;Max_cycle;Signal;HPM_P1;HPM_P2
2023/01/07 00:01:38;;;;;;;8.73;4.35;;;;;;;3.05;88.87;101333.81;5030314;28;20095;-75
2023/01/07 00:04:06;;;;;;;9.52;4.95;;;;;;;3.33;89.47;101378.53;5029851;28;20068;-79
2023/01/07 00:06:35;;;;;;;6.75;4.50;;;;;;;3.02;90.00;101332.69;5030715;28;20071;-75
2023/01/07 00:09:01;;;;;;;12.00;5.00;;;;;;;3.31;90.01;101377.50;5030860;28;20060;-83
2023/01/07 00:11:34;;;;;;;9.10;5.82;;;;;;;3.36;89.55;101377.09;5029494;28;20025;-77
2023/01/07 00:14:02;;;;;;;8.05;4.40;;;;;;;3.31;89.65;101369.84;5029431;28;20059;-82
2023/01/07 00:16:30;;;;;;;6.72;4.43;;;;;;;3.38;89.61;101392.56;5029218;28;20021;-78
2023/01/07 00:18:59;;;;;;;8.18;4.65;;;;;;;3.19;90.28;101403.81;5029501;28;20026;-78
2023/01/07 00:21:27;;;;;;;8.65;5.22;;;;;;;3.19;91.04;101401.28;5046127;28;20060;-80
2023/01/07 00:23:57;;;;;;;8.13;5.47;;;;;;;3.27;91.81;101396.78;5029446;28;20117;-77
2023/01/07 00:26:24;;;;;;;9.48;4.53;;;;;;;3.27;91.50;101390.81;5028398;28;20037;-80
2023/01/07 00:28:52;;;;;;;7.82;4.80;;;;;;;3.31;91.35;101385.16;5028854;28;20032;-79
2023/01/07 00:31:22;;;;;;;7.40;4.45;;;;;;;3.39;91.39;101392.66;5021358;28;20048;-77
2023/01/07 00:36:26;;;;;;;9.00;4.63;;;;;;;3.34;89.28;101396.53;5024633;28;20037;-77
2023/01/07 00:38:59;;;;;;;9.70;5.43;;;;;;;3.27;89.00;101389.13;5027023;28;20746;-77
2023/01/07 00:41:24;;;;;;;10.80;5.68;;;;;;;3.27;88.92;101409.53;5030193;28;20052;-79
2023/01/07 00:43:50;;;;;;;10.77;6.07;;;;;;;3.30;89.45;101412.38;5023238;28;20081;-76
2023/01/07 00:46:17;;;;;;;9.55;5.18;;;;;;;3.24;89.12;101394.00;5029520;28;20116;-75
2023/01/07 00:48:43;;;;;;;8.32;5.45;;;;;;;3.32;88.44;101392.94;5029524;28;20488;-75
2023/01/07 00:51:10;;;;;;;10.45;5.88;;;;;;;3.33;87.57;101399.84;5028357;28;20061;-74
2023/01/07 00:53:36;;;;;;;10.05;5.88;;;;;;;3.11;88.59;101364.03;5030428;28;20084;-75
2023/01/07 00:56:01;;;;;;;10.57;5.03;;;;;;;3.26;89.38;101400.09;5029060;28;20034;-75
2023/01/07 00:58:26;;;;;;;9.13;5.55;;;;;;;3.22;91.13;101401.50;5029155;28;20034;-77
2023/01/07 01:00:56;;;;;;;9.48;5.53;;;;;;;3.24;92.01;101392.31;5030352;28;20478;-76
2023/01/07 01:03:22;;;;;;;11.98;6.65;;;;;;;2.98;92.17;101340.81;5030131;28;20128;-75
2023/01/07 01:05:48;;;;;;;9.15;6.07;;;;;;;3.33;91.48;101394.72;5029781;28;20029;-75
2023/01/07 01:08:14;;;;;;;9.23;5.68;;;;;;;3.32;90.90;101404.81;5030170;28;20037;-78
2023/01/07 01:10:39;;;;;;;8.77;5.38;;;;;;;3.34;91.40;101396.53;5030237;28;20484;-75
2023/01/07 01:13:04;;;;;;;9.85;5.28;;;;;;;3.39;91.61;101394.34;5030073;28;20060;-75
2023/01/07 01:15:30;;;;;;;7.43;5.28;;;;;;;3.37;90.12;101378.00;5030232;28;20033;-75
2023/01/07 01:17:56;;;;;;;10.13;5.05;;;;;;;3.31;88.06;101391.16;5029902;28;20049;-74
2023/01/07 01:20:21;;;;;;;10.45;5.05;;;;;;;3.30;87.55;101389.41;5028706;28;20026;-76
2023/01/07 01:22:47;;;;;;;9.57;5.63;;;;;;;3.32;87.67;101372.53;5045523;28;20033;-74
2023/01/07 01:25:13;;;;;;;10.15;5.65;;;;;;;3.34;87.17;101370.09;5030120;28;20137;-75
2023/01/07 01:27:38;;;;;;;11.48;6.07;;;;;;;3.29;87.67;101356.06;5029836;28;20032;-74
2023/01/07 01:30:05;;;;;;;10.50;5.90;;;;;;;3.36;88.00;101373.66;5029845;28;20502;-75
2023/01/07 01:32:31;;;;;;;9.80;5.38;;;;;;;3.17;88.19;101373.84;5029857;28;20029;-80
2023/01/07 01:34:56;;;;;;;9.43;5.55;;;;;;;2.86;88.15;101325.44;5028634;28;20033;-75
2023/01/07 01:37:22;;;;;;;9.65;5.78;;;;;;;3.15;88.54;101372.81;5028610;28;20032;-75
2023/01/07 01:39:47;;;;;;;12.05;5.35;;;;;;;3.06;88.38;101370.41;5029861;28;20068;-75
2023/01/07 01:42:19;;;;;;;12.18;6.00;;;;;;;2.96;88.44;101356.00;5030068;28;20034;-74
2023/01/07 01:44:53;;;;;;;12.25;6.68;;;;;;;2.90;90.06;101373.34;5030245;28;20061;-75
2023/01/07 01:47:19;;;;;;;10.48;6.25;;;;;;;2.90;89.65;101383.56;5029745;28;20461;-74
2023/01/07 01:49:51;;;;;;;9.73;6.20;;;;;;;2.77;89.66;101386.75;5028802;28;20033;-79
2023/01/07 01:52:23;;;;;;;11.82;6.53;;;;;;;2.65;90.34;101384.06;5029790;28;20480;-75
2023/01/07 01:54:56;;;;;;;10.23;6.63;;;;;;;2.69;90.40;101381.03;5029729;28;20495;-75
2023/01/07 01:57:23;;;;;;;14.80;7.05;;;;;;;2.73;90.90;101379.63;5029856;28;20025;-76
2023/01/07 01:59:51;;;;;;;10.38;6.60;;;;;;;2.67;91.33;101372.34;5030092;28;20034;-75
2023/01/07 02:02:23;;;;;;;10.15;6.70;;;;;;;2.50;92.60;101387.91;5029879;28;20037;-75
2023/01/07 02:04:49;;;;;;;9.82;6.18;;;;;;;2.34;93.57;101376.38;5029754;28;20100;-74
2023/01/07 02:07:16;;;;;;;12.00;7.30;;;;;;;2.31;94.76;101378.69;5029694;28;20168;-75
2023/01/07 02:09:42;;;;;;;11.20;6.38;;;;;;;2.21;95.01;101368.50;5028543;28;20563;-75
2023/01/07 02:12:19;;;;;;;10.50;6.05;;;;;;;2.23;94.34;101387.34;5022488;28;20105;-78
2023/01/07 02:14:55;;;;;;;11.13;7.13;;;;;;;2.16;93.10;101385.94;5008996;28;20124;-77
2023/01/07 02:18:04;;;;;;;9.63;6.53;;;;;;;1.89;94.39;101399.72;5010734;28;20034;-76
2023/01/07 02:21:00;;;;;;;11.73;6.10;;;;;;;1.79;96.57;101395.47;4991262;28;20141;-80
2023/01/07 02:24:01;;;;;;;11.25;7.35;;;;;;;1.76;96.88;101403.75;4913979;29;20040;-75
2023/01/07 02:26:44;;;;;;;12.30;6.83;;;;;;;1.55;98.79;101396.78;4894484;29;20037;-75
2023/01/07 02:29:48;;;;;;;10.23;6.53;;;;;;;1.63;100.00;101400.00;4895221;29;20074;-75
2023/01/07 02:32:34;;;;;;;11.87;7.23;;;;;;;1.78;99.30;101399.69;4857923;29;20045;-74
2023/01/07 02:35:04;;;;;;;12.30;7.07;;;;;;;1.44;99.40;101384.00;4857665;29;20149;-75
2023/01/07 02:37:30;;;;;;;14.03;7.93;;;;;;;1.35;99.97;101401.00;4858076;29;20034;-75
2023/01/07 02:40:20;;;;;;;14.77;7.77;;;;;;;0.96;100.00;101361.97;4857493;29;20064;-75
2023/01/07 02:43:02;;;;;;;13.87;8.67;;;;;;;1.03;100.00;101403.22;4857819;29;20050;-74
2023/01/07 02:45:29;;;;;;;15.60;8.97;;;;;;;0.73;100.00;101414.91;4849541;29;20034;-77
2023/01/07 02:48:06;;;;;;;14.37;9.40;;;;;;;0.54;100.00;101419.97;4839248;29;20144;-75
2023/01/07 02:50:32;;;;;;;16.40;9.87;;;;;;;0.55;100.00;101411.56;4839144;29;20178;-76
2023/01/07 02:52:57;;;;;;;15.03;9.00;;;;;;;0.56;100.00;101411.72;4839234;29;20063;-74
2023/01/07 02:55:48;;;;;;;18.13;9.47;;;;;;;0.56;100.00;101423.53;4822223;29;20136;-75
2023/01/07 02:58:22;;;;;;;17.97;10.23;;;;;;;0.27;100.00;101392.13;4821020;29;20026;-75
2023/01/07 03:01:15;;;;;;;13.00;8.33;;;;;;;0.03;100.00;101395.81;4892054;29;20036;-75
2023/01/07 03:04:08;;;;;;;13.97;8.83;;;;;;;0.19;100.00;101440.41;4932689;29;20070;-76
2023/01/07 03:07:00;;;;;;;15.83;9.63;;;;;;;0.38;100.00;101415.09;4932679;29;20027;-75
2023/01/07 03:09:37;;;;;;;13.97;9.23;;;;;;;0.31;100.00;101391.69;4974548;28;20034;-75
2023/01/07 03:12:12;;;;;;;14.40;9.20;;;;;;;0.60;100.00;101439.22;5012556;28;20026;-76
2023/01/07 03:14:48;;;;;;;16.20;9.93;;;;;;;0.52;100.00;101422.34;5012240;28;20025;-78
2023/01/07 03:17:26;;;;;;;17.60;9.63;;;;;;;0.56;100.00;101432.06;5012383;28;20473;-75
2023/01/07 03:19:56;;;;;;;15.40;9.10;;;;;;;0.45;100.00;101385.31;5010954;28;20029;-81
2023/01/07 03:22:24;;;;;;;17.33;9.35;;;;;;;0.87;100.00;101431.44;5012322;28;20029;-76
2023/01/07 03:24:52;;;;;;;16.70;10.30;;;;;;;1.03;100.00;101428.63;5011979;28;20046;-76
2023/01/07 03:27:21;;;;;;;17.17;10.60;;;;;;;1.23;100.00;101425.34;5011989;28;20026;-76
2023/01/07 03:29:47;;;;;;;;;;;;;;;1.36;99.28;101425.69;5012091;28;20058;-78
2023/01/07 03:32:17;;;;;;;17.83;9.73;;;;;;;1.20;97.85;101420.88;5011871;28;19957;-75
2023/01/07 03:34:43;;;;;;;17.15;9.05;;;;;;;1.24;99.13;101417.84;5012496;28;20030;-76
2023/01/07 03:37:16;;;;;;;16.50;10.60;;;;;;;1.35;98.86;101418.81;5012194;28;20069;-76
2023/01/07 03:39:43;;;;;;;16.77;9.73;;;;;;;1.36;97.35;101415.50;5012588;28;20056;-75
2023/01/07 03:44:55;;;;;;;16.30;9.77;;;;;;;1.23;99.84;101410.97;5012147;28;20092;-76
2023/01/07 03:47:22;;;;;;;16.33;10.43;;;;;;;1.31;100.00;101411.66;5013905;28;20811;-76
2023/01/07 03:49:47;;;;;;;15.77;10.13;;;;;;;1.43;99.52;101417.84;5012313;28;20030;-76
2023/01/07 03:52:12;;;;;;;15.27;9.33;;;;;;;1.22;97.96;101416.84;5024973;28;20423;-75
2023/01/07 03:54:38;;;;;;;15.40;9.93;;;;;;;1.05;100.00;101420.38;5031643;28;20476;-76
2023/01/07 03:57:03;;;;;;;18.27;10.40;;;;;;;1.10;100.00;101431.88;5031672;28;20092;-76
2023/01/07 03:59:29;;;;;;;19.33;11.10;;;;;;;1.01;100.00;101415.78;5030010;28;20075;-75
2023/01/07 04:01:54;;;;;;;18.90;10.97;;;;;;;1.09;100.00;101422.44;5030966;28;20497;-77
2023/01/07 04:04:20;;;;;;;16.80;10.03;;;;;;;1.24;100.00;101432.22;5031460;28;20037;-75
2023/01/07 04:06:45;;;;;;;16.43;10.67;;;;;;;1.19;100.00;101405.50;5031595;28;20400;-75
2023/01/07 04:09:13;;;;;;;16.07;10.03;;;;;;;1.09;100.00;101376.66;5031281;28;20037;-78
2023/01/07 04:11:40;;;;;;;15.27;10.33;;;;;;;1.36;100.00;101419.69;5031163;28;20033;-77
2023/01/07 04:14:05;;;;;;;18.77;11.20;;;;;;;1.50;99.91;101426.03;5029940;28;20121;-76
2023/01/07 04:16:30;;;;;;;17.23;10.00;;;;;;;1.58;98.14;101432.69;5023406;28;20124;-75
2023/01/07 04:18:56;;;;;;;15.43;9.93;;;;;;;1.60;97.42;101428.63;5016943;28;20036;-78
2023/01/07 04:21:21;;;;;;;15.50;9.57;;;;;;;1.66;96.78;101426.63;5029667;28;20029;-74
2023/01/07 04:23:47;;;;;;;19.13;9.80;;;;;;;1.73;95.58;101430.59;5030908;28;20460;-78
2023/01/07 04:26:12;;;;;;;14.80;9.13;;;;;;;1.50;94.40;101390.41;5030650;28;20086;-75
2023/01/07 04:28:38;;;;;;;18.93;10.77;;;;;;;1.57;94.02;101431.78;5011498;28;20030;-75
2023/01/07 04:31:03;;;;;;;20.85;10.82;;;;;;;1.49;93.44;101431.88;5010880;28;20097;-76
2023/01/07 04:33:28;;;;;;;18.10;9.60;;;;;;;1.55;92.48;101442.59;5011085;28;20030;-75
2023/01/07 04:35:56;;;;;;;18.87;10.37;;;;;;;1.33;91.52;101412.69;5011019;28;20105;-75
2023/01/07 04:38:22;;;;;;;18.73;10.33;;;;;;;1.38;91.55;101428.38;5010889;28;20033;-75
2023/01/07 04:40:48;;;;;;;16.70;10.57;;;;;;;1.35;91.79;101445.91;5021265;28;20049;-75
2023/01/07 04:43:13;;;;;;;16.13;10.00;;;;;;;1.30;92.38;101448.03;5020843;28;20042;-76
2023/01/07 04:45:38;;;;;;;16.03;9.93;;;;;;;1.22;92.42;101451.53;5013317;28;20472;-75
2023/01/07 04:48:04;;;;;;;17.00;9.87;;;;;;;1.23;92.56;101451.66;5028253;28;20061;-76
2023/01/07 04:50:30;;;;;;;17.30;10.67;;;;;;;1.34;92.43;101451.75;5027636;28;20103;-75
2023/01/07 04:52:55;;;;;;;16.63;10.50;;;;;;;1.29;91.58;101443.69;5027884;28;20029;-75
2023/01/07 04:55:20;;;;;;;16.97;10.57;;;;;;;0.93;92.06;101452.31;5027547;28;20045;-76
2023/01/07 04:57:46;;;;;;;17.43;10.30;;;;;;;0.64;95.08;101443.81;5028246;28;20545;-76
2023/01/07 05:00:12;;;;;;;16.70;10.30;;;;;;;0.75;95.72;101460.06;5027194;28;20041;-77
2023/01/07 05:02:37;;;;;;;19.83;10.77;;;;;;;0.56;96.87;101454.94;5026334;28;20030;-76
2023/01/07 05:05:03;;;;;;;16.53;9.47;;;;;;;0.56;98.26;101459.09;5027253;28;20127;-74
2023/01/07 05:07:28;;;;;;;19.97;10.70;;;;;;;0.49;98.46;101457.66;5010921;28;20049;-75
2023/01/07 05:09:54;;;;;;;16.83;10.17;;;;;;;0.28;99.27;101462.50;5011057;28;20143;-75
2023/01/07 05:12:19;;;;;;;19.13;11.53;;;;;;;-0.13;100.00;101462.00;5027683;28;20411;-75
2023/01/07 05:14:45;;;;;;;19.33;11.97;;;;;;;-0.45;100.00;101466.50;5023007;28;20419;-76
2023/01/07 05:17:10;;;;;;;19.90;11.93;;;;;;;-0.44;100.00;101469.19;5027524;28;20045;-74
2023/01/07 05:19:36;;;;;;;20.03;11.80;;;;;;;-0.47;100.00;101468.00;5025818;28;20068;-74
2023/01/07 05:22:01;;;;;;;17.80;9.87;;;;;;;-0.74;100.00;101477.25;5029298;28;20415;-74
2023/01/07 05:24:26;;;;;;;17.20;9.73;;;;;;;-0.80;100.00;101471.56;5028740;28;20068;-74
2023/01/07 05:26:52;;;;;;;15.07;9.00;;;;;;;-0.88;100.00;101489.44;5028492;28;20037;-73
2023/01/07 05:29:17;;;;;;;15.97;9.87;;;;;;;-0.73;100.00;101484.13;5030374;28;20030;-73
2023/01/07 05:31:43;;;;;;;16.50;9.87;;;;;;;-0.45;100.00;101476.66;5030379;28;20064;-73
2023/01/07 05:34:08;;;;;;;21.50;10.90;;;;;;;-0.31;100.00;101478.00;5030195;28;20048;-74
2023/01/07 05:36:33;;;;;;;14.40;9.70;;;;;;;-0.69;100.00;101405.06;5030606;28;20038;-74
2023/01/07 05:38:59;;;;;;;22.40;11.00;;;;;;;-0.10;100.00;101486.78;5016395;28;20033;-73
2023/01/07 05:41:24;;;;;;;16.30;10.13;;;;;;;-0.10;100.00;101492.78;5013941;28;20042;-73
2023/01/07 05:43:50;;;;;;;18.73;10.17;;;;;;;-0.08;100.00;101490.38;5025573;28;20061;-75
2023/01/07 05:46:15;;;;;;;19.57;10.57;;;;;;;-0.23;100.00;101492.34;5028748;28;20095;-75
2023/01/07 05:48:41;;;;;;;21.30;11.23;;;;;;;-0.31;100.00;101488.13;5024095;28;20033;-75
2023/01/07 05:51:06;;;;;;;17.23;9.57;;;;;;;-0.18;100.00;101491.13;5029861;28;20049;-74
2023/01/07 05:53:32;;;;;;;18.60;10.37;;;;;;;-0.18;100.00;101479.31;5032643;28;20026;-74
2023/01/07 05:55:58;;;;;;;17.03;10.47;;;;;;;-0.08;100.00;101503.06;5029726;28;20521;-73
2023/01/07 05:58:24;;;;;;;18.87;11.87;;;;;;;-0.06;100.00;101479.63;5028665;28;20038;-74
2023/01/07 06:00:50;;;;;;;23.20;13.50;;;;;;;0.18;99.84;101490.31;5033170;28;20026;-75
2023/01/07 06:03:15;;;;;;;21.87;11.97;;;;;;;0.26;98.36;101496.13;5033320;28;20036;-74
2023/01/07 06:05:41;;;;;;;21.23;11.07;;;;;;;0.25;97.09;101491.78;5032094;28;20029;-75
2023/01/07 06:08:06;;;;;;;39.80;22.10;;;;;;;-0.04;96.92;101447.66;5033231;28;20036;-72
2023/01/07 06:10:32;;;;;;;39.63;22.73;;;;;;;0.12;97.10;101485.53;5031795;28;20029;-76
2023/01/07 06:12:58;;;;;;;24.97;13.57;;;;;;;0.14;97.27;101489.13;5033197;28;20499;-74
2023/01/07 06:15:23;;;;;;;20.97;13.03;;;;;;;0.08;97.82;101498.69;5033425;28;20369;-73
2023/01/07 06:17:48;;;;;;;23.47;12.90;;;;;;;-0.03;98.25;101486.63;5032727;28;20392;-74
2023/01/07 06:20:14;;;;;;;19.23;11.77;;;;;;;0.05;98.80;101500.97;5032620;28;20048;-75
2023/01/07 06:22:42;;;;;;;21.97;13.00;;;;;;;0.12;99.45;101510.94;5033022;28;20060;-73
2023/01/07 06:25:09;;;;;;;20.40;12.03;;;;;;;0.32;98.89;101501.78;5032514;28;20048;-74
2023/01/07 06:27:34;;;;;;;17.87;10.83;;;;;;;0.42;99.05;101501.88;5031793;28;20116;-73
2023/01/07 06:30:00;;;;;;;17.93;11.57;;;;;;;0.53;99.04;101495.28;5013561;28;20112;-73
2023/01/07 06:32:25;;;;;;;18.23;11.33;;;;;;;0.57;99.13;101478.69;5031539;28;20026;-73
2023/01/07 06:34:51;;;;;;;17.27;11.47;;;;;;;0.65;99.06;101498.09;5032880;28;20081;-73
2023/01/07 06:37:16;;;;;;;22.57;13.80;;;;;;;0.66;100.00;101501.50;5031637;28;20018;-78
2023/01/07 06:39:43;;;;;;;27.23;15.33;;;;;;;0.66;100.00;101501.50;5032711;28;20419;-74
2023/01/07 06:42:08;;;;;;;22.50;13.97;;;;;;;0.45;100.00;101461.53;5032990;28;20041;-74
2023/01/07 06:44:33;;;;;;;20.93;10.97;;;;;;;0.72;100.00;101497.00;5032755;28;20488;-73
2023/01/07 06:46:59;;;;;;;17.63;11.60;;;;;;;0.63;100.00;101481.78;5032938;28;20528;-77
2023/01/07 06:49:24;;;;;;;17.30;10.47;;;;;;;0.64;100.00;101498.84;5032675;28;20029;-74
2023/01/07 06:51:50;;;;;;;15.70;10.00;;;;;;;0.53;100.00;101476.63;5029430;28;20554;-73
2023/01/07 06:54:15;;;;;;;15.40;9.03;;;;;;;0.70;99.84;101498.50;5029550;28;20033;-75
2023/01/07 06:56:41;;;;;;;17.03;9.60;;;;;;;0.64;99.76;101511.53;5032071;28;20103;-74
2023/01/07 06:59:06;;;;;;;16.53;9.87;;;;;;;0.37;100.00;101505.63;5031517;28;20063;-73
2023/01/07 07:01:31;;;;;;;14.63;9.10;;;;;;;0.26;100.00;101509.72;5032694;28;20040;-75
2023/01/07 07:03:57;;;;;;;17.63;9.77;;;;;;;0.14;100.00;101501.81;5031653;28;20037;-73
2023/01/07 07:06:22;;;;;;;16.80;10.73;;;;;;;0.32;100.00;101525.56;5029345;28;20033;-75
2023/01/07 07:08:48;;;;;;;15.90;10.30;;;;;;;0.32;100.00;101517.94;5031762;28;20431;-74
2023/01/07 07:11:13;;;;;;;17.23;10.33;;;;;;;0.28;100.00;101509.88;5032585;28;20113;-73
2023/01/07 07:13:38;;;;;;;19.00;10.90;;;;;;;0.06;100.00;101462.09;5032251;28;20033;-74
2023/01/07 07:16:04;;;;;;;17.77;11.33;;;;;;;0.35;100.00;101524.94;5032561;28;20040;-77
2023/01/07 07:18:29;;;;;;;17.27;11.30;;;;;;;0.46;100.00;101528.47;5032388;28;20037;-74
2023/01/07 07:20:57;;;;;;;16.90;11.67;;;;;;;0.59;100.00;101518.72;5032441;28;20575;-73
2023/01/07 07:23:23;;;;;;;18.97;12.63;;;;;;;0.77;100.00;101517.03;5031809;28;20075;-74
2023/01/07 07:25:49;;;;;;;19.67;12.57;;;;;;;0.84;100.00;101505.75;5032293;28;20044;-72
2023/01/07 07:28:15;;;;;;;21.17;13.40;;;;;;;1.01;100.00;101517.50;5032061;28;20025;-74
2023/01/07 07:30:41;;;;;;;22.57;12.93;;;;;;;0.78;100.00;101464.53;5031996;28;20163;-73
2023/01/07 07:33:07;;;;;;;21.40;11.87;;;;;;;1.11;100.00;101502.31;5032202;28;20116;-74
2023/01/07 07:35:32;;;;;;;16.80;10.97;;;;;;;1.25;100.00;101515.41;5031905;28;20029;-74
2023/01/07 07:37:58;;;;;;;17.73;10.53;;;;;;;1.18;100.00;101488.50;5030580;28;20030;-72
2023/01/07 07:40:23;;;;;;;20.83;14.43;;;;;;;1.50;100.00;101530.38;5031722;28;20045;-76
2023/01/07 07:42:49;;;;;;;29.57;21.23;;;;;;;1.28;100.00;101453.00;5031823;28;20049;-74
2023/01/07 07:45:18;;;;;;;67.43;30.50;;;;;;;1.90;100.00;101526.28;5031683;28;20483;-73
2023/01/07 07:47:44;;;;;;;21.73;14.43;;;;;;;2.05;100.00;101519.13;5031557;28;20030;-74
2023/01/07 07:50:10;;;;;;;16.77;10.27;;;;;;;2.15;100.00;101515.72;5031523;28;20025;-73
2023/01/07 07:52:35;;;;;;;17.38;11.02;;;;;;;2.26;100.00;101510.78;5031562;28;20021;-74
2023/01/07 07:55:01;;;;;;;15.23;10.90;;;;;;;2.45;100.00;101520.03;5031776;28;20034;-74
2023/01/07 07:57:26;;;;;;;16.73;10.50;;;;;;;2.45;100.00;101511.50;5031540;28;20030;-73
2023/01/07 07:59:51;;;;;;;15.98;10.23;;;;;;;2.30;100.00;101514.50;5031255;28;20689;-74
2023/01/07 08:02:18;;;;;;;13.63;9.43;;;;;;;2.42;100.00;101501.94;5031348;28;20617;-75
2023/01/07 08:04:44;;;;;;;16.25;10.00;;;;;;;2.58;100.00;101499.94;5030157;28;20036;-72
2023/01/07 08:07:11;;;;;;;14.85;9.32;;;;;;;2.87;100.00;101511.72;5031451;28;20423;-76
2023/01/07 08:09:37;;;;;;;16.13;9.88;;;;;;;2.99;100.00;101503.31;5031274;28;20040;-73
2023/01/07 08:12:02;;;;;;;15.68;10.48;;;;;;;3.12;100.00;101508.69;5031449;28;20025;-73
2023/01/07 08:14:28;;;;;;;16.35;10.30;;;;;;;3.01;100.00;101461.88;5031256;28;20135;-73
2023/01/07 08:16:54;;;;;;;16.73;11.02;;;;;;;3.33;100.00;101506.16;5031145;28;20029;-74
2023/01/07 08:19:19;;;;;;;16.55;10.88;;;;;;;3.43;100.00;101493.38;5029915;28;20026;-74
2023/01/07 08:21:44;;;;;;;14.65;10.68;;;;;;;3.50;100.00;101499.88;5030973;28;20028;-76
2023/01/07 08:24:10;;;;;;;17.65;10.50;;;;;;;3.62;100.00;101498.31;5031144;28;20022;-74
2023/01/07 08:26:35;;;;;;;15.68;10.77;;;;;;;3.70;100.00;101488.72;5031417;28;20491;-79
2023/01/07 08:29:01;;;;;;;16.67;10.40;;;;;;;3.81;100.00;101492.16;5031466;28;20033;-75
2023/01/07 08:31:26;;;;;;;15.50;9.80;;;;;;;3.97;100.00;101484.06;5030962;28;20118;-75
2023/01/07 08:33:52;;;;;;;14.63;9.73;;;;;;;4.04;99.58;101486.34;5030954;28;20021;-74
2023/01/07 08:36:17;;;;;;;15.88;10.32;;;;;;;4.17;100.00;101483.06;5030737;28;20026;-79
2023/01/07 08:38:43;;;;;;;13.10;9.00;;;;;;;4.25;99.65;101478.56;5031126;28;20029;-74
2023/01/07 08:41:08;;;;;;;14.32;9.60;;;;;;;4.27;99.61;101469.38;5031080;28;20112;-75
2023/01/07 08:43:35;;;;;;;14.82;10.45;;;;;;;4.45;99.11;101478.47;5030860;28;20061;-74
2023/01/07 08:46:00;;;;;;;14.82;9.30;;;;;;;4.52;98.98;101477.28;5030665;28;20048;-74
2023/01/07 08:48:26;;;;;;;14.32;9.40;;;;;;;4.63;98.16;101466.19;5030503;28;20486;-75
2023/01/07 08:50:53;;;;;;;12.75;8.82;;;;;;;4.72;97.85;101462.56;5030490;28;20037;-73
2023/01/07 08:53:19;;;;;;;14.50;9.88;;;;;;;4.72;98.18;101466.00;5030788;28;20377;-75
2023/01/07 08:55:45;;;;;;;13.63;9.85;;;;;;;4.80;98.31;101464.06;5030661;28;20090;-74
2023/01/07 08:58:11;;;;;;;30.42;9.25;;;;;;;4.97;98.47;101468.78;5030350;28;20037;-75
2023/01/07 09:00:36;;;;;;;16.00;9.80;;;;;;;5.13;97.75;101467.38;5030476;28;20029;-74
2023/01/07 09:03:03;;;;;;;12.35;9.10;;;;;;;5.26;97.00;101458.94;5029262;28;20032;-74
2023/01/07 09:05:28;;;;;;;16.02;9.65;;;;;;;5.44;96.31;101464.53;5030646;28;20026;-74
2023/01/07 09:07:55;;;;;;;11.57;7.47;;;;;;;5.59;96.13;101460.53;5027500;28;20026;-76
2023/01/07 09:10:22;;;;;;;13.27;8.57;;;;;;;5.67;96.07;101461.09;5042322;28;20099;-75
2023/01/07 09:12:47;;;;;;;13.82;8.18;;;;;;;5.75;95.21;101439.47;5028426;28;20056;-75
2023/01/07 09:15:13;;;;;;;13.65;8.80;;;;;;;5.86;94.87;101442.81;5028293;28;20473;-75
2023/01/07 09:17:38;;;;;;;13.23;8.18;;;;;;;5.93;94.57;101444.13;5026028;28;20037;-74
2023/01/07 09:20:06;;;;;;;17.65;8.88;;;;;;;5.44;94.99;101333.94;5027869;28;20571;-74
2023/01/07 09:22:33;;;;;;;14.50;9.32;;;;;;;6.20;93.52;101427.28;5010828;28;20073;-73
2023/01/07 09:24:59;;;;;;;14.13;8.70;;;;;;;6.26;93.13;101411.44;5029433;28;20072;-76
2023/01/07 09:27:25;;;;;;;13.35;8.23;;;;;;;6.45;92.14;101411.03;5034379;28;20458;-75
2023/01/07 09:29:53;;;;;;;15.77;8.93;;;;;;;6.58;92.54;101408.53;5034401;28;20345;-77
2023/01/07 09:32:20;;;;;;;12.73;8.65;;;;;;;6.73;90.60;101402.63;5023006;28;20037;-74
2023/01/07 09:34:45;;;;;;;13.95;8.95;;;;;;;6.79;90.18;101406.53;5021887;28;20026;-74
2023/01/07 09:37:11;;;;;;;11.57;8.38;;;;;;;6.69;90.06;101369.88;5034200;28;20037;-74
2023/01/07 09:39:36;;;;;;;22.08;8.48;;;;;;;6.72;89.36;101352.13;5033935;28;20041;-73
2023/01/07 09:42:30;;;;;;;12.07;7.97;;;;;;;7.13;88.98;101395.06;5033375;28;20523;-75
2023/01/07 09:44:59;;;;;;;11.30;7.80;;;;;;;7.25;89.31;101393.28;5033046;28;20029;-73
2023/01/07 09:47:28;;;;;;;12.07;8.05;;;;;;;7.06;87.89;101337.25;5021143;28;20026;-74
2023/01/07 09:49:57;;;;;;;13.50;8.07;;;;;;;7.46;87.70;101385.16;5017499;28;20033;-75
2023/01/07 09:52:30;;;;;;;;;;;;;;;7.58;86.64;101378.25;5021990;28;20057;-74
2023/01/07 09:55:02;;;;;;;13.38;7.70;;;;;;;7.59;86.00;101356.03;5031674;28;20422;-76
2023/01/07 09:57:27;;;;;;;10.80;6.93;;;;;;;7.69;85.88;101366.09;5032136;28;20502;-74
2023/01/07 09:59:53;;;;;;;11.35;7.80;;;;;;;7.92;85.38;101371.78;5033400;28;20061;-74
2023/01/07 10:02:41;;;;;;;12.50;8.57;;;;;;;7.89;85.31;101363.88;5032954;28;20084;-76
2023/01/07 10:05:37;;;;;;;11.88;7.88;;;;;;;8.05;84.60;101355.41;5033680;28;20060;-77
2023/01/07 10:08:02;;;;;;;13.05;7.75;;;;;;;8.14;84.40;101348.28;5032902;28;20104;-73
2023/01/07 10:10:49;;;;;;;12.10;7.90;;;;;;;8.35;83.44;101347.78;5032893;28;20455;-74
2023/01/07 10:13:36;;;;;;;13.45;7.57;;;;;;;8.43;82.07;101305.41;5021899;28;20026;-72
2023/01/07 10:16:16;;;;;;;11.50;7.45;;;;;;;8.66;81.13;101323.91;5032740;28;20385;-74
2023/01/07 10:19:15;;;;;;;13.77;8.30;;;;;;;8.81;80.98;101322.22;5031918;28;20128;-74
2023/01/07 10:21:45;;;;;;;;;;;;;;;8.96;79.92;101313.59;5024580;28;20033;-74
2023/01/07 10:24:24;;;;;;;11.40;7.10;;;;;;;9.03;79.17;101310.56;5031409;28;19974;-72
2023/01/07 10:26:55;;;;;;;9.23;5.78;;;;;;;9.18;77.37;101308.88;5031563;28;20036;-73
2023/01/07 10:29:53;;;;;;;8.68;5.95;;;;;;;9.31;76.39;101301.81;5033027;28;20436;-73
2023/01/07 10:32:21;;;;;;;10.48;5.68;;;;;;;9.38;75.00;101289.38;5032784;28;20040;-73
2023/01/07 10:34:52;;;;;;;11.02;6.13;;;;;;;9.42;74.96;101289.53;5032856;28;20065;-74
2023/01/07 10:37:34;;;;;;;9.57;5.30;;;;;;;9.22;76.30;101297.03;5045248;28;20438;-79
2023/01/07 10:40:24;;;;;;;9.48;5.30;;;;;;;9.39;76.13;101297.97;5028762;28;20133;-78
2023/01/07 10:43:18;;;;;;;11.68;6.20;;;;;;;9.30;77.54;101294.91;5015090;28;20034;-76
2023/01/07 10:46:20;;;;;;;9.50;5.20;;;;;;;9.28;76.49;101260.41;5012172;28;20476;-76
2023/01/07 10:49:04;;;;;;;9.68;5.60;;;;;;;9.42;74.00;101238.88;5011704;28;20056;-74
2023/01/07 10:52:01;;;;;;;9.23;5.10;;;;;;;9.80;74.17;101275.25;5010427;28;20096;-75
2023/01/07 10:54:30;;;;;;;8.77;5.70;;;;;;;9.91;73.43;101278.41;5023630;28;20468;-78
2023/01/07 10:57:05;;;;;;;9.23;5.38;;;;;;;10.03;72.17;101267.00;5028727;28;20037;-75
2023/01/07 10:59:30;;;;;;;9.80;5.10;;;;;;;9.92;71.88;101249.19;5027840;28;20044;-74
2023/01/07 11:01:57;;;;;;;10.05;5.13;;;;;;;10.00;73.12;101260.81;5030358;28;20100;-76
2023/01/07 11:04:24;;;;;;;8.73;5.22;;;;;;;9.90;73.39;101261.16;5031266;28;20037;-76
2023/01/07 11:07:05;;;;;;;8.65;4.80;;;;;;;9.94;72.81;101248.47;5030408;28;20025;-76
2023/01/07 11:09:41;;;;;;;9.05;4.80;;;;;;;9.57;73.47;101206.97;5030173;28;20052;-76
2023/01/07 11:12:34;;;;;;;10.23;5.22;;;;;;;10.06;73.08;101245.66;5028053;28;20026;-76
2023/01/07 11:15:04;;;;;;;9.20;5.53;;;;;;;9.79;72.65;101201.25;5031353;28;20029;-76
2023/01/07 11:17:53;;;;;;;8.93;5.28;;;;;;;10.17;72.41;101229.03;5030007;28;20124;-75
2023/01/07 11:20:40;;;;;;;10.63;5.35;;;;;;;10.35;72.03;101225.59;5031647;28;20479;-77
2023/01/07 11:23:25;;;;;;;8.32;5.10;;;;;;;10.44;71.77;101228.69;5031184;28;20050;-77
2023/01/07 11:25:51;;;;;;;11.57;5.18;;;;;;;10.30;71.48;101215.03;5031654;28;20029;-76
2023/01/07 11:28:19;;;;;;;10.35;4.93;;;;;;;10.31;71.76;101210.78;5031375;28;20036;-76
2023/01/07 11:30:55;;;;;;;14.20;6.22;;;;;;;10.39;71.64;101204.31;5031339;28;20083;-79
2023/01/07 11:33:45;;;;;;;11.43;6.95;;;;;;;10.47;71.41;101202.13;5029724;28;20500;-81
2023/01/07 11:36:11;;;;;;;12.38;7.40;;;;;;;10.32;71.24;101160.94;5031621;28;20041;-75
2023/01/07 11:38:38;;;;;;;11.40;5.75;;;;;;;10.62;70.12;101197.69;5031176;28;20510;-76